createdAt,value
2022-12-06T00:06:01.115Z,5.75
2022-12-06T00:20:51.737Z,5.78
2022-12-06T00:35:42.204Z,5.82
2022-12-06T00:50:34.505Z,5.88
2022-12-06T01:05:25.382Z,5.90
2022-12-06T01:20:16.871Z,5.95
2022-12-06T01:35:07.398Z,5.97
2022-12-06T01:50:11.895Z,5.97
2022-12-06T02:05:09.656Z,5.98
2022-12-06T02:20:21.896Z,6.02
2022-12-06T02:35:30.769Z,6.04
2022-12-06T02:50:27.236Z,6.07
2022-12-06T03:05:17.683Z,6.09
2022-12-06T03:20:09.112Z,6.08
2022-12-06T03:35:01.841Z,6.07
2022-12-06T03:49:58.949Z,6.05
2022-12-06T04:19:52.282Z,6.07
2022-12-06T04:34:59.602Z,6.04
2022-12-06T04:49:57.248Z,6.02
2022-12-06T05:04:49.867Z,5.96
2022-12-06T05:19:40.277Z,5.91
2022-12-06T05:34:33.264Z,5.92
2022-12-06T05:49:23.524Z,5.93
2022-12-06T06:04:13.959Z,5.92
2022-12-06T06:19:06.541Z,5.94
2022-12-06T06:33:57.440Z,5.94
2022-12-06T06:48:48.367Z,5.94
2022-12-06T07:03:39.300Z,5.95
2022-12-06T07:18:32.629Z,5.92
2022-12-06T07:33:21.644Z,5.90
2022-12-06T07:48:11.526Z,5.92
2022-12-06T08:03:02.828Z,5.83
2022-12-06T08:17:52.771Z,5.67
2022-12-06T08:32:44.241Z,5.75
2022-12-06T08:47:35.212Z,5.73
2022-12-06T09:02:25.583Z,5.83
2022-12-06T09:17:16.403Z,5.91
2022-12-06T09:32:07.815Z,5.82
2022-12-06T09:47:23.645Z,5.84
2022-12-06T10:02:25.588Z,5.85
2022-12-06T10:17:28.203Z,5.87
2022-12-06T10:32:38.577Z,6.00
2022-12-06T10:47:33.161Z,6.07
2022-12-06T11:02:26.895Z,6.12
2022-12-06T11:17:19.874Z,6.08
2022-12-06T11:47:11.209Z,6.25
2022-12-06T12:02:04.913Z,6.32
2022-12-06T12:16:59.060Z,6.30
2022-12-06T12:31:56.436Z,6.34
2022-12-06T12:46:58.789Z,6.53
2022-12-06T13:17:27.995Z,6.60
2022-12-06T13:32:21.831Z,6.68
2022-12-06T13:47:28.570Z,6.66
2022-12-06T14:02:40.703Z,6.63
2022-12-06T14:18:00.642Z,6.61
2022-12-06T14:32:37.263Z,6.54
2022-12-06T14:47:31.487Z,6.54
2022-12-06T15:02:24.635Z,6.48
2022-12-06T15:17:17.597Z,6.45
2022-12-06T15:32:11.105Z,6.38
2022-12-06T15:47:01.894Z,6.37
2022-12-06T16:01:52.151Z,6.34
2022-12-06T16:16:43.694Z,6.33
2022-12-06T16:31:38.336Z,6.31
2022-12-06T16:46:26.537Z,6.28
2022-12-06T17:01:20.130Z,6.25
2022-12-06T17:16:10.800Z,6.25
2022-12-06T17:31:01.309Z,6.26
2022-12-06T17:45:51.923Z,6.23
2022-12-06T18:00:44.116Z,6.17
2022-12-06T18:15:38.574Z,6.14
2022-12-06T18:30:31.959Z,6.12
2022-12-06T18:45:22.588Z,6.11
2022-12-06T19:00:29.834Z,6.13
2022-12-06T19:15:17.651Z,6.12
2022-12-06T19:30:08.760Z,6.11
2022-12-06T19:44:59.872Z,6.12
2022-12-06T19:59:50.935Z,6.11
2022-12-06T20:14:41.855Z,6.08
2022-12-06T20:29:35.061Z,6.09
2022-12-06T20:44:25.100Z,6.04
2022-12-06T20:59:15.402Z,6.04
2022-12-06T21:14:06.068Z,6.04
2022-12-06T21:28:56.478Z,6.04
2022-12-06T21:43:48.835Z,6.03
2022-12-06T21:58:39.175Z,6.04
2022-12-06T22:13:32.434Z,6.02
2022-12-06T22:28:24.736Z,5.98
2022-12-06T22:43:14.200Z,5.95
2022-12-06T22:58:04.670Z,5.92
2022-12-06T23:12:55.968Z,5.90
2022-12-06T23:27:48.220Z,5.86
2022-12-06T23:42:38.918Z,5.84
2022-12-06T23:57:29.671Z,5.82
